Aircraft
UPR1004 PR-BID B787-10
SBGR
Guarulhos - Governador André Franco Montoro International Airport
SAEZ
Minister Pistarini International Airport
Pilot:: Jair
Aircraft:: 787-10
Alternate: SUMU
Network: ivao
FLIGHT DETAILS
Distance: 931nm Duration 02h 43m
Cruise Speed: Flight Level: 35000
Validation: Validated Type Charter
Flight Fuel
ZFW: 144176
Block Fuel/Initial FOB: 51788
Flight Fuel: 0
Cargo
Passengers: 320
Cargo: 12010
ROUTE
ROUTE: sbgr dct saez
REMARKS:
DATE
Date: 26-09-04
Departure Time: 2246
Cargo: 12010
FLIGHT DETAILS
Crashed: No
Validator Comments: Validado por Claudenir
Flight Rating: 95
LANDING ANALYSIS
Landing wind: 260º/9 kt
Landing heading: 294º
Landing VS:: -486 ft/min
Landing IAS:: 142 kt
Landing Force G: 1.1 G
Landing Bank: 2
Landing Pitch: -7
Landing Flaps: 100
Navigation Lights: ON
Landing Lights: ON
Beacon Lights: ON
Strobe Lights: ON
viserfly

ALTITUDE CHART

viserfly

MAIN EVENTS

DATE EVENT IAS ALTITUDE
2026-09-03 22:37:26 FLYacars version 1.3.6 2 2479
2026-09-03 22:37:26 Aircraft boarding in progress 2 2479
2026-09-03 22:37:26 FLAPS 44% 2 2479
2026-09-03 22:37:26 Navigation Lights ON 2 2479
2026-09-03 22:37:26 Beacon Lights ON 2 2479
2026-09-03 22:37:26 Strobe Lights ON 2 2479
2026-09-03 22:37:26 Landing Lights ON 2 2479
2026-09-03 22:37:26 Starting Engine 2 2 2479
2026-09-03 22:37:26 Starting Engine 1 2 2479
2026-09-03 22:38:32 Taxi Lights ON 2 2478
2026-09-03 22:40:22 Aircraft taxiing to runway 3 2479
2026-09-03 22:41:15 Simulator Paused 12 2478
2026-09-03 22:41:47 Simulator Un-Paused 12 2478
2026-09-03 22:46:52 Detected Take-off roll, HDG 269, IAS 158kt, GS 168kt, G-force 1.0g, Pitch -5.7deg, Bank 0.8deg, Wind 341/03kt, Temp 20°C 158 2481
2026-09-03 22:46:52 Airborne 158 2481
2026-09-03 22:46:57 Gear UP, IAS 173kt, GS 184kt, ALT 54ft AGL 173 2518
2026-09-03 22:47:04 FLAPS 33% 190kt, ALT 2658ft 190 2658
2026-09-03 22:47:19 FLAPS 22% 214kt, ALT 3461ft 214 3461
2026-09-03 22:47:29 FLAPS 11% 215kt, ALT 4230ft 215 4230
2026-09-03 22:47:35 Taxi Lights OFF 220 4621
2026-09-03 22:47:51 FLAPS 0% 232kt, ALT 5381ft 232 5381
2026-09-03 22:49:06 Landing Lights OFF 253 10574
2026-09-03 22:59:54 Aircraft on Top Of Climb at 36060ft, IAS 294kt, GS 424kt, HDG 246deg, TAT -43deg, WIND 247/92kt 294 36060
2026-09-04 00:53:02 Aircraft on Top Of Descent at 34499ft, IAS 275kt, GS 357kt, HDG 247deg, TAT -43deg, WIND 263/137kt 275 34499
2026-09-04 01:01:20 Stall flag 208 22539
2026-09-04 01:16:39 Landing Lights ON 203 9465
2026-09-04 01:16:43 Taxi Lights ON 203 9385
2026-09-04 01:17:39 FLAPS 11% 201kt, ALT 8230ft 201 8230
2026-09-04 01:17:41 FLAPS 22% 201kt, ALT 8202ft 201 8202
2026-09-04 01:20:58 FLAPS 33% 184kt, ALT 4474ft 184 4474
2026-09-04 01:21:27 FLAPS 44% 180kt, ALT 3919ft 180 3919
2026-09-04 01:21:58 FLAPS 55% 147kt, ALT 3866ft 147 3866
2026-09-04 01:23:23 Gear DOWN, IAS 150kt, GS 141kt, ALT 3850ft AGL 150 3864
2026-09-04 01:24:24 FLAPS 66% 149kt, ALT 3868ft 149 3868
2026-09-04 01:28:43 FLAPS 77% 145kt, ALT 1476ft 145 1476
2026-09-04 01:28:43 FLAPS 100% 145kt, ALT 1470ft 145 1470
2026-09-04 01:30:38 Landed at destination with a landing rate of -486fpm, G-force 1.1g, Pitch -7.2deg, Bank 1.6deg, HDG 294deg, IAS 142kt, GS 134kt, Wind 260/09kt, Temp 9°C 142 89
2026-09-04 01:30:56 Aircraft taxiing to apron 32 88
2026-09-04 01:30:57 FLAPS 88% 27 88
2026-09-04 01:30:58 FLAPS 66% 26 88
2026-09-04 01:30:58 FLAPS 33% 26 88
2026-09-04 01:30:58 FLAPS 0% 25 88
2026-09-04 01:31:16 Landing Lights OFF 13 88
2026-09-04 01:33:02 Taxi speed above 25kt 24 82
2026-09-04 01:33:40 Taxi Lights OFF 1 81
2026-09-04 01:33:44 Beacon Lights OFF 1 81
2026-09-04 01:33:48 Aircraft at gate/stand, ground services are moving into position, disembarkation has begun. Remaining FOB 51788kg FLYacars v1.3.6 1 81
viserfly

ACARS DATA

DATE IAS GS ALTITUDE FUEL CONSUMED OAT FLIGHT STATUS
2026-09-03 22:37:56 2 0 2478 0 20 BOARDING
2026-09-03 22:38:26 2 0 2478 0 20 BOARDING
2026-09-03 22:38:56 1 0 2478 0 20 BOARDING
2026-09-03 22:39:26 0 1 2479 0 20 BOARDING
2026-09-03 22:39:56 0 1 2479 0 20 PUSHBACK
2026-09-03 22:40:26 4 7 2478 0 20 TAXI TO RUNWAY
2026-09-03 22:40:56 10 12 2478 0 20 TAXI TO RUNWAY
2026-09-03 22:41:26 12 13 2478 0 20 TAXI TO RUNWAY
2026-09-03 22:41:56 12 14 2478 0 20 TAXI TO RUNWAY
2026-09-03 22:42:26 11 13 2477 0 20 TAXI TO RUNWAY
2026-09-03 22:42:56 16 18 2477 0 20 TAXI TO RUNWAY
2026-09-03 22:43:26 26 28 2477 0 20 TAXI TO RUNWAY
2026-09-03 22:43:56 35 38 2476 0 20 TAXI TO RUNWAY
2026-09-03 22:44:26 32 35 2475 0 20 TAXI TO RUNWAY
2026-09-03 22:44:56 29 31 2475 0 20 TAXI TO RUNWAY
2026-09-03 22:45:26 19 23 2473 0 20 TAXI TO RUNWAY
2026-09-03 22:45:56 0 0 2474 0 20 TAXI TO RUNWAY
2026-09-03 22:46:26 32 35 2474 0 20 TAXI TO RUNWAY
2026-09-03 22:46:56 169 180 2502 0 20 TAKEOFF
2026-09-03 22:47:26 216 225 4002 0 20 INITIAL CLIMB
2026-09-03 22:47:56 238 258 5583 0 16 CLIMB
2026-09-03 22:48:26 252 277 7550 0 12 CLIMB
2026-09-03 22:48:56 252 289 9801 0 9 CLIMB
2026-09-03 22:49:26 265 309 11618 0 6 CLIMB
2026-09-03 22:49:56 291 342 12955 0 2 CLIMB
2026-09-03 22:50:26 297 353 14815 0 -1 CLIMB
2026-09-03 22:50:56 299 357 16840 0 -6 CLIMB
2026-09-03 22:51:26 299 357 18748 0 -10 CLIMB
2026-09-03 22:51:56 297 354 20510 0 -13 CLIMB
2026-09-03 22:52:26 297 359 22077 0 -16 CLIMB
2026-09-03 22:52:56 297 365 23501 0 -19 CLIMB
2026-09-03 22:53:26 297 371 24809 0 -21 CLIMB
2026-09-03 22:53:56 298 375 26081 0 -23 CLIMB
2026-09-03 22:54:26 298 379 27298 0 -25 CLIMB
2026-09-03 22:54:56 298 382 28456 0 -27 CLIMB
2026-09-03 22:55:26 298 386 29536 0 -28 CLIMB
2026-09-03 22:55:56 298 390 30514 0 -30 CLIMB
2026-09-03 22:56:26 297 393 31438 0 -32 CLIMB
2026-09-03 22:56:56 296 397 32261 0 -34 CLIMB
2026-09-03 22:57:26 295 402 33018 0 -36 CLIMB
2026-09-03 22:57:56 296 407 33727 0 -37 CLIMB
2026-09-03 22:58:26 296 411 34397 0 -39 CLIMB
2026-09-03 22:58:56 296 416 35004 0 -41 CLIMB
2026-09-03 22:59:26 295 420 35560 0 -42 CLIMB
2026-09-03 22:59:56 295 424 36060 0 -43 ENROUTE
2026-09-03 23:00:26 294 423 36054 0 -43 ENROUTE
2026-09-03 23:00:56 293 421 36049 0 -43 ENROUTE
2026-09-03 23:01:26 293 420 36048 0 -43 ENROUTE
2026-09-03 23:01:56 293 420 36046 0 -43 ENROUTE
2026-09-03 23:02:26 293 418 36028 0 -43 ENROUTE
2026-09-03 23:02:56 293 417 36027 0 -43 ENROUTE
2026-09-03 23:03:26 293 416 36025 0 -43 ENROUTE
2026-09-03 23:03:56 293 416 36024 0 -43 ENROUTE
2026-09-03 23:04:26 293 416 36024 0 -43 ENROUTE
2026-09-03 23:04:56 293 416 36024 0 -43 ENROUTE
2026-09-03 23:05:26 293 416 36024 0 -43 ENROUTE
2026-09-03 23:05:56 293 416 36024 0 -43 ENROUTE
2026-09-03 23:06:26 293 414 35988 0 -43 ENROUTE
2026-09-03 23:06:56 293 413 35987 0 -43 ENROUTE
2026-09-03 23:07:26 292 413 35987 0 -43 ENROUTE
2026-09-03 23:07:56 293 412 35982 0 -43 ENROUTE
2026-09-03 23:08:26 293 412 35983 0 -43 ENROUTE
2026-09-03 23:08:56 293 412 35982 0 -43 ENROUTE
2026-09-03 23:09:26 292 411 35969 0 -43 ENROUTE
2026-09-03 23:09:56 293 412 35981 0 -43 ENROUTE
2026-09-03 23:10:26 294 410 35949 0 -43 ENROUTE
2026-09-03 23:10:56 293 409 35950 0 -43 ENROUTE
2026-09-03 23:11:26 293 408 35949 0 -43 ENROUTE
2026-09-03 23:11:56 293 408 35948 0 -43 ENROUTE
2026-09-03 23:12:26 292 408 35947 0 -43 ENROUTE
2026-09-03 23:12:56 292 408 35947 0 -43 ENROUTE
2026-09-03 23:13:26 292 409 35946 0 -43 ENROUTE
2026-09-03 23:13:56 293 409 35946 0 -43 ENROUTE
2026-09-03 23:14:26 293 408 35934 0 -43 ENROUTE
2026-09-03 23:14:56 292 406 35931 0 -43 ENROUTE
2026-09-03 23:15:26 292 407 35933 0 -43 ENROUTE
2026-09-03 23:15:56 293 407 35930 0 -43 ENROUTE
2026-09-03 23:16:26 293 407 35931 0 -43 ENROUTE
2026-09-03 23:16:56 293 407 35930 0 -43 ENROUTE
2026-09-03 23:17:26 292 407 35930 0 -43 ENROUTE
2026-09-03 23:17:56 293 408 35936 0 -43 ENROUTE
2026-09-03 23:18:26 295 408 35909 0 -43 DESCENT
2026-09-03 23:18:56 292 403 35900 0 -43 ENROUTE
2026-09-03 23:19:26 293 404 35903 0 -43 ENROUTE
2026-09-03 23:19:56 295 404 35911 0 -43 ENROUTE
2026-09-03 23:20:26 292 404 35893 0 -43 ENROUTE
2026-09-03 23:20:56 293 404 35892 0 -43 ENROUTE
2026-09-03 23:21:26 293 404 35890 0 -43 ENROUTE
2026-09-03 23:21:56 293 403 35890 0 -43 ENROUTE
2026-09-03 23:22:26 293 403 35897 0 -43 ENROUTE
2026-09-03 23:22:56 294 403 35877 0 -44 ENROUTE
2026-09-03 23:23:26 292 400 35876 0 -44 ENROUTE
2026-09-03 23:23:56 293 401 35875 0 -43 ENROUTE
2026-09-03 23:24:26 293 401 35879 0 -44 ENROUTE
2026-09-03 23:24:56 292 401 35877 0 -44 ENROUTE
2026-09-03 23:25:26 293 401 35880 0 -44 ENROUTE
2026-09-03 23:25:56 293 401 35879 0 -43 ENROUTE
2026-09-03 23:26:26 293 402 35876 0 -43 ENROUTE
2026-09-03 23:26:56 294 403 35858 0 -43 ENROUTE
2026-09-03 23:27:26 292 401 35861 0 -43 ENROUTE
2026-09-03 23:27:56 293 401 35863 0 -43 ENROUTE
2026-09-03 23:28:26 293 402 35861 0 -43 ENROUTE
2026-09-03 23:28:56 293 400 35828 0 -43 ENROUTE
2026-09-03 23:29:26 293 398 35828 0 -43 ENROUTE
2026-09-03 23:29:56 292 398 35827 0 -43 ENROUTE
2026-09-03 23:30:26 292 398 35826 0 -43 ENROUTE
2026-09-03 23:30:56 293 398 35828 0 -43 ENROUTE
2026-09-03 23:31:26 294 398 35765 0 -44 ENROUTE
2026-09-03 23:31:56 293 396 35768 0 -44 ENROUTE
2026-09-03 23:32:26 293 395 35767 0 -44 ENROUTE
2026-09-03 23:32:56 293 395 35771 0 -44 ENROUTE
2026-09-03 23:33:26 292 395 35765 0 -44 ENROUTE
2026-09-03 23:33:56 292 394 35766 0 -44 ENROUTE
2026-09-03 23:34:26 293 394 35764 0 -44 ENROUTE
2026-09-03 23:34:56 293 394 35761 0 -44 ENROUTE
2026-09-03 23:35:26 293 395 35761 0 -44 ENROUTE
2026-09-03 23:35:56 293 394 35762 0 -44 ENROUTE
2026-09-03 23:36:26 293 394 35761 0 -44 ENROUTE
2026-09-03 23:36:56 294 394 35737 0 -44 ENROUTE
2026-09-03 23:37:26 293 393 35740 0 -44 ENROUTE
2026-09-03 23:37:56 292 392 35738 0 -44 ENROUTE
2026-09-03 23:38:26 293 393 35739 0 -44 ENROUTE
2026-09-03 23:38:56 293 392 35736 0 -44 ENROUTE
2026-09-03 23:39:26 292 392 35737 0 -44 ENROUTE
2026-09-03 23:39:56 295 392 35681 0 -44 DESCENT
2026-09-03 23:40:26 293 390 35689 0 -44 ENROUTE
2026-09-03 23:40:56 293 389 35687 0 -44 ENROUTE
2026-09-03 23:41:26 292 389 35687 0 -44 ENROUTE
2026-09-03 23:41:56 292 389 35686 0 -44 ENROUTE
2026-09-03 23:42:26 292 389 35687 0 -44 ENROUTE
2026-09-03 23:42:56 293 389 35680 0 -44 ENROUTE
2026-09-03 23:43:26 292 388 35678 0 -44 ENROUTE
2026-09-03 23:43:56 293 389 35679 0 -44 ENROUTE
2026-09-03 23:44:26 294 389 35642 0 -44 ENROUTE
2026-09-03 23:44:56 293 387 35641 0 -44 ENROUTE
2026-09-03 23:45:26 292 387 35641 0 -44 ENROUTE
2026-09-03 23:45:56 293 387 35642 0 -44 ENROUTE
2026-09-03 23:46:26 292 387 35641 0 -44 ENROUTE
2026-09-03 23:46:56 293 387 35641 0 -44 ENROUTE
2026-09-03 23:47:26 293 387 35641 0 -44 ENROUTE
2026-09-03 23:47:56 293 387 35627 0 -44 ENROUTE
2026-09-03 23:48:26 293 387 35629 0 -44 ENROUTE
2026-09-03 23:48:56 294 386 35593 0 -44 ENROUTE
2026-09-03 23:49:26 293 384 35593 0 -44 ENROUTE
2026-09-03 23:49:56 293 384 35594 0 -44 ENROUTE
2026-09-03 23:50:26 293 384 35593 0 -44 ENROUTE
2026-09-03 23:50:56 293 384 35587 0 -45 ENROUTE
2026-09-03 23:51:26 292 384 35586 0 -45 ENROUTE
2026-09-03 23:51:56 292 385 35584 0 -45 ENROUTE
2026-09-03 23:52:26 293 384 35585 0 -45 ENROUTE
2026-09-03 23:52:56 293 384 35588 0 -45 ENROUTE
2026-09-03 23:53:26 293 384 35554 0 -45 ENROUTE
2026-09-03 23:53:56 292 383 35554 0 -45 ENROUTE
2026-09-03 23:54:26 293 383 35557 0 -45 ENROUTE
2026-09-03 23:54:56 293 383 35559 0 -45 ENROUTE
2026-09-03 23:55:26 293 383 35556 0 -45 ENROUTE
2026-09-03 23:55:56 293 383 35557 0 -45 ENROUTE
2026-09-03 23:56:26 293 383 35559 0 -45 ENROUTE
2026-09-03 23:56:56 293 384 35554 0 -45 ENROUTE
2026-09-03 23:57:26 293 383 35557 0 -45 ENROUTE
2026-09-03 23:57:56 294 384 35536 0 -45 DESCENT
2026-09-03 23:58:26 293 380 35511 0 -45 ENROUTE
2026-09-03 23:58:56 292 379 35506 0 -45 ENROUTE
2026-09-03 23:59:26 292 380 35507 0 -45 ENROUTE
2026-09-03 23:59:56 292 380 35507 0 -45 ENROUTE
2026-09-04 00:00:26 292 380 35505 0 -45 ENROUTE
2026-09-04 00:00:56 293 380 35507 0 -45 ENROUTE
2026-09-04 00:01:26 293 381 35509 0 -45 ENROUTE
2026-09-04 00:01:56 294 382 35505 0 -45 ENROUTE
2026-09-04 00:02:26 292 382 35500 0 -45 ENROUTE
2026-09-04 00:02:56 293 381 35473 0 -45 ENROUTE
2026-09-04 00:03:26 293 382 35468 0 -45 ENROUTE
2026-09-04 00:03:56 293 381 35471 0 -45 ENROUTE
2026-09-04 00:04:26 292 381 35471 0 -45 ENROUTE
2026-09-04 00:04:56 293 381 35472 0 -45 ENROUTE
2026-09-04 00:05:26 293 381 35472 0 -44 ENROUTE
2026-09-04 00:05:56 293 381 35472 0 -44 ENROUTE
2026-09-04 00:06:26 293 381 35471 0 -44 ENROUTE
2026-09-04 00:06:56 293 381 35470 0 -44 ENROUTE
2026-09-04 00:07:26 293 379 35410 0 -44 ENROUTE
2026-09-04 00:07:56 293 378 35411 0 -44 ENROUTE
2026-09-04 00:08:26 293 377 35393 0 -45 ENROUTE
2026-09-04 00:08:56 292 377 35392 0 -45 ENROUTE
2026-09-04 00:09:26 293 377 35392 0 -45 ENROUTE
2026-09-04 00:09:56 292 377 35392 0 -45 ENROUTE
2026-09-04 00:10:26 293 377 35392 0 -45 ENROUTE
2026-09-04 00:10:56 292 377 35391 0 -44 ENROUTE
2026-09-04 00:11:26 293 378 35391 0 -44 ENROUTE
2026-09-04 00:11:56 294 378 35349 0 -44 ENROUTE
2026-09-04 00:12:26 293 376 35351 0 -44 ENROUTE
2026-09-04 00:12:56 292 376 35350 0 -44 ENROUTE
2026-09-04 00:13:26 292 376 35351 0 -44 ENROUTE
2026-09-04 00:13:56 293 376 35351 0 -44 ENROUTE
2026-09-04 00:14:26 293 376 35352 0 -45 ENROUTE
2026-09-04 00:14:56 293 376 35351 0 -45 ENROUTE
2026-09-04 00:15:26 293 376 35351 0 -44 ENROUTE
2026-09-04 00:15:56 293 376 35352 0 -44 ENROUTE
2026-09-04 00:16:26 293 376 35351 0 -44 ENROUTE
2026-09-04 00:16:56 294 375 35265 0 -44 ENROUTE
2026-09-04 00:17:26 293 373 35268 0 -44 ENROUTE
2026-09-04 00:17:56 292 373 35268 0 -44 ENROUTE
2026-09-04 00:18:26 292 373 35268 0 -44 ENROUTE
2026-09-04 00:18:56 292 373 35266 0 -44 ENROUTE
2026-09-04 00:19:26 292 373 35265 0 -44 ENROUTE
2026-09-04 00:19:56 293 373 35243 0 -44 ENROUTE
2026-09-04 00:20:26 293 372 35248 0 -44 ENROUTE
2026-09-04 00:20:56 293 372 35245 0 -44 ENROUTE
2026-09-04 00:21:26 293 372 35247 0 -44 ENROUTE
2026-09-04 00:21:56 293 372 35247 0 -44 ENROUTE
2026-09-04 00:22:26 293 372 35247 0 -44 ENROUTE
2026-09-04 00:22:56 293 372 35248 0 -44 ENROUTE
2026-09-04 00:23:26 293 372 35240 0 -44 ENROUTE
2026-09-04 00:23:56 293 372 35240 0 -44 ENROUTE
2026-09-04 00:24:26 293 371 35240 0 -44 ENROUTE
2026-09-04 00:24:56 293 372 35240 0 -44 ENROUTE
2026-09-04 00:25:26 293 371 35240 0 -44 ENROUTE
2026-09-04 00:25:56 293 372 35226 0 -44 ENROUTE
2026-09-04 00:26:26 293 370 35169 0 -44 ENROUTE
2026-09-04 00:26:56 293 369 35168 0 -44 ENROUTE
2026-09-04 00:27:26 292 369 35168 0 -44 ENROUTE
2026-09-04 00:27:56 292 369 35168 0 -44 ENROUTE
2026-09-04 00:28:26 293 369 35168 0 -44 ENROUTE
2026-09-04 00:28:56 293 369 35163 0 -44 ENROUTE
2026-09-04 00:29:26 293 368 35163 0 -44 ENROUTE
2026-09-04 00:29:56 292 368 35162 0 -44 ENROUTE
2026-09-04 00:30:26 293 368 35163 0 -44 ENROUTE
2026-09-04 00:30:56 293 368 35162 0 -44 ENROUTE
2026-09-04 00:31:26 293 367 35122 0 -44 ENROUTE
2026-09-04 00:31:56 293 367 35116 0 -44 ENROUTE
2026-09-04 00:32:26 293 367 35101 0 -44 ENROUTE
2026-09-04 00:32:56 293 367 35103 0 -44 ENROUTE
2026-09-04 00:33:26 293 367 35103 0 -44 ENROUTE
2026-09-04 00:33:56 293 367 35103 0 -44 ENROUTE
2026-09-04 00:34:26 293 367 35103 0 -44 ENROUTE
2026-09-04 00:34:56 293 367 35103 0 -45 ENROUTE
2026-09-04 00:35:26 293 367 35093 0 -45 ENROUTE
2026-09-04 00:35:56 292 368 35038 0 -44 DESCENT
2026-09-04 00:36:26 293 369 35028 0 -44 ENROUTE
2026-09-04 00:36:56 293 369 35028 0 -44 ENROUTE
2026-09-04 00:37:26 293 369 35029 0 -44 ENROUTE
2026-09-04 00:37:56 293 369 35029 0 -44 ENROUTE
2026-09-04 00:38:26 293 370 35022 0 -44 ENROUTE
2026-09-04 00:38:56 293 370 35022 0 -44 ENROUTE
2026-09-04 00:39:26 293 370 35023 0 -44 ENROUTE
2026-09-04 00:39:56 293 370 35022 0 -44 ENROUTE
2026-09-04 00:40:26 293 370 35022 0 -44 ENROUTE
2026-09-04 00:40:56 292 372 34977 0 -44 ENROUTE
2026-09-04 00:41:26 293 375 34976 0 -44 ENROUTE
2026-09-04 00:41:56 293 375 34977 0 -44 ENROUTE
2026-09-04 00:42:26 293 374 34977 0 -44 ENROUTE
2026-09-04 00:42:56 293 375 34974 0 -44 ENROUTE
2026-09-04 00:43:26 293 375 34974 0 -44 ENROUTE
2026-09-04 00:43:56 293 375 34974 0 -44 ENROUTE
2026-09-04 00:44:26 293 375 34974 0 -44 ENROUTE
2026-09-04 00:44:56 293 375 34974 0 -44 ENROUTE
2026-09-04 00:45:26 293 375 34975 0 -44 ENROUTE
2026-09-04 00:45:56 293 379 34916 0 -44 ENROUTE
2026-09-04 00:46:26 293 379 34917 0 -44 ENROUTE
2026-09-04 00:46:56 293 379 34917 0 -44 ENROUTE
2026-09-04 00:47:26 293 379 34903 0 -44 ENROUTE
2026-09-04 00:47:56 293 380 34904 0 -44 ENROUTE
2026-09-04 00:48:26 294 380 34905 0 -44 ENROUTE
2026-09-04 00:48:56 294 380 34906 0 -44 ENROUTE
2026-09-04 00:49:26 294 380 34907 0 -44 ENROUTE
2026-09-04 00:49:56 294 380 34907 0 -44 ENROUTE
2026-09-04 00:50:26 291 384 34847 0 -43 ENROUTE
2026-09-04 00:50:56 293 387 34850 0 -43 ENROUTE
2026-09-04 00:51:26 292 386 34849 0 -43 ENROUTE
2026-09-04 00:51:56 292 386 34847 0 -43 ENROUTE
2026-09-04 00:52:26 290 382 34844 0 -43 ENROUTE
2026-09-04 00:52:56 276 358 34694 0 -43 DESCENT
2026-09-04 00:53:26 278 355 33723 0 -42 DESCENT
2026-09-04 00:53:56 278 349 32909 0 -41 DESCENT
2026-09-04 00:54:26 277 342 32116 0 -40 DESCENT
2026-09-04 00:54:56 276 335 31319 0 -39 DESCENT
2026-09-04 00:55:26 274 330 30475 0 -37 DESCENT
2026-09-04 00:55:56 275 325 29662 0 -36 DESCENT
2026-09-04 00:56:26 271 317 28961 0 -36 DESCENT
2026-09-04 00:56:56 268 309 28305 0 -35 DESCENT
2026-09-04 00:57:26 267 305 27654 0 -34 DESCENT
2026-09-04 00:57:56 268 304 26995 0 -34 DESCENT
2026-09-04 00:58:26 268 302 26324 0 -33 DESCENT
2026-09-04 00:58:56 269 300 25639 0 -32 DESCENT
2026-09-04 00:59:26 252 275 24953 0 -32 DESCENT
2026-09-04 00:59:56 274 303 24316 0 -31 DESCENT
2026-09-04 01:00:26 253 273 23578 0 -30 DESCENT
2026-09-04 01:00:56 229 238 22947 0 -29 DESCENT
2026-09-04 01:01:26 204 207 22442 0 -29 DESCENT
2026-09-04 01:01:56 195 194 22100 0 -28 DESCENT
2026-09-04 01:02:26 190 186 21740 0 -27 DESCENT
2026-09-04 01:02:56 194 191 21354 0 -27 DESCENT
2026-09-04 01:03:26 194 192 20942 0 -26 DESCENT
2026-09-04 01:03:56 194 191 20537 0 -25 DESCENT
2026-09-04 01:04:26 194 191 20121 0 -24 DESCENT
2026-09-04 01:04:56 194 191 19712 0 -24 DESCENT
2026-09-04 01:05:26 194 190 19298 0 -23 DESCENT
2026-09-04 01:05:56 194 192 18854 0 -22 DESCENT
2026-09-04 01:06:26 194 192 18420 0 -21 DESCENT
2026-09-04 01:06:56 194 192 17983 0 -21 DESCENT
2026-09-04 01:07:26 194 192 17590 0 -20 DESCENT
2026-09-04 01:07:56 194 193 17203 0 -19 DESCENT
2026-09-04 01:08:26 208 211 16801 0 -18 DESCENT
2026-09-04 01:08:56 219 224 16347 0 -17 DESCENT
2026-09-04 01:09:26 211 215 15865 0 -16 DESCENT
2026-09-04 01:09:56 203 206 15408 0 -15 DESCENT
2026-09-04 01:10:26 204 209 14980 0 -14 DESCENT
2026-09-04 01:10:56 205 216 14536 0 -14 DESCENT
2026-09-04 01:11:26 206 217 14082 0 -13 DESCENT
2026-09-04 01:11:56 202 212 13604 0 -12 DESCENT
2026-09-04 01:12:26 206 216 13157 0 -11 DESCENT
2026-09-04 01:12:56 202 210 12724 0 -10 DESCENT
2026-09-04 01:13:26 206 214 12306 0 -9 DESCENT
2026-09-04 01:13:56 203 209 11869 0 -9 DESCENT
2026-09-04 01:14:26 205 211 11436 0 -8 DESCENT
2026-09-04 01:14:56 205 210 10993 0 -7 DESCENT
2026-09-04 01:15:26 197 200 10676 0 -6 DESCENT
2026-09-04 01:15:56 206 209 10247 0 -5 DESCENT
2026-09-04 01:16:26 204 205 9725 0 -4 DESCENT
2026-09-04 01:16:56 203 204 9115 0 -4 DESCENT
2026-09-04 01:17:26 202 204 8504 0 -3 DESCENT
2026-09-04 01:17:56 195 196 7987 0 -3 DESCENT
2026-09-04 01:18:26 188 191 7460 0 -2 DESCENT
2026-09-04 01:18:56 185 186 6888 0 -2 DESCENT
2026-09-04 01:19:26 184 183 6301 0 -2 DESCENT
2026-09-04 01:19:56 184 181 5704 0 0 DESCENT
2026-09-04 01:20:26 184 179 5105 0 1 DESCENT
2026-09-04 01:20:56 184 178 4507 0 3 DESCENT
2026-09-04 01:21:26 180 172 3930 0 4 DESCENT
2026-09-04 01:21:56 147 137 3872 0 5 ENROUTE
2026-09-04 01:22:26 151 141 3866 0 5 ENROUTE
2026-09-04 01:22:56 150 141 3862 0 5 ENROUTE
2026-09-04 01:23:26 150 140 3864 0 5 ENROUTE
2026-09-04 01:23:56 149 139 3865 0 4 ENROUTE
2026-09-04 01:24:26 147 138 3866 0 4 ENROUTE
2026-09-04 01:24:56 149 139 3884 0 4 ENROUTE
2026-09-04 01:25:26 148 138 3562 0 5 DESCENT
2026-09-04 01:25:56 149 136 3016 0 7 DESCENT
2026-09-04 01:26:26 147 134 2507 0 8 DESCENT
2026-09-04 01:26:56 147 134 2064 0 10 APPROACH
2026-09-04 01:27:26 148 137 1657 0 11 APPROACH
2026-09-04 01:27:56 150 137 1611 0 11 APPROACH
2026-09-04 01:28:26 151 146 1726 0 10 APPROACH
2026-09-04 01:28:56 147 145 1335 0 11 APPROACH
2026-09-04 01:29:26 150 147 1003 0 11 ON FINAL
2026-09-04 01:29:56 148 141 532 0 10 ON FINAL
2026-09-04 01:30:26 150 142 257 0 9 ON FINAL
2026-09-04 01:30:56 34 26 88 0 9 TAXI TO APRON
2026-09-04 01:31:26 27 20 88 0 9 TAXI TO APRON
2026-09-04 01:31:56 24 20 87 0 9 TAXI TO APRON
2026-09-04 01:32:26 32 24 86 0 9 TAXI TO APRON
2026-09-04 01:32:56 14 16 83 0 9 TAXI TO APRON
2026-09-04 01:33:26 9 7 81 0 9 TAXI TO APRON
  • Join our VA!

    It has been 11 years of great learning, friendships, and stories.

  • Sign up now!